Latest Weather Observations for Nerriga

IDN60801

Issued at 9:32 pm EDT Monday 20 February 2017 (issued every 30 minutes, with the page automatically refreshed every 10 minutes)

About weather observations | Map of weather stations | Latest weather observations for NSW | Other Formats
Station Details ID: 069128 Name: NERRIGA AWS Lat: -35.11 Lon: 150.08 Height: 622.0 m
Data from the previous 72 hours. | See also: Recent months at Nerriga
Date/Time
EDT
Temp
°C
App
Temp
°C
Dew
Point
°C
Rel
Hum
%
Delta-T
°C
Wind Press
QNH
hPa
Press
MSL
hPa
Rain since
9am
mm
Dir  Spd
km/h
Gust
km/h
Spd
kts
Gust
kts
20/09:30pm 14.5 11.4 1.4 41 5.9 W 7 11 4 6 1017.2 1014.6 0.0
20/09:00pm 15.0 10.7 1.2 39 6.2 W 13 19 7 10 1016.5 1014.0 0.0
20/08:30pm 15.8 11.5 0.8 36 6.7 W 13 22 7 12 1015.8 1013.2 0.0
20/08:00pm 16.6 11.9 0.7 34 7.2 W 15 24 8 13 1015.1 1012.6 0.0
20/07:30pm 17.7 11.2 0.4 31 7.8 WNW 24 33 13 18 1014.3 1011.7 0.0
20/07:00pm 19.0 12.2 0.6 29 8.4 WNW 26 35 14 19 1013.4 1010.9 0.0
20/06:30pm 19.7 12.8 0.2 27 8.9 WNW 26 41 14 22 1012.9 1010.3 0.0
20/06:00pm 20.1 12.5 0.5 27 9.1 WNW 30 46 16 25 1012.6 1010.0 0.0
20/05:30pm 20.5 13.3 0.4 26 9.3 WNW 28 43 15 23 1012.2 1009.6 0.0
20/05:00pm 20.7 13.1 0.5 26 9.4 NW 30 43 16 23 1011.9 1009.2 0.0
20/04:30pm 21.3 13.7 0.5 25 9.7 W 30 52 16 28 1011.6 1009.0 0.0
20/04:27pm 20.9 13.6 0.2 25 9.6 W 28 52 15 28 1011.5 1008.9 0.0
20/04:00pm 20.6 13.0 0.4 26 9.4 WNW 30 44 16 24 1011.4 1008.8 0.0
20/03:30pm 20.7 13.1 0.5 26 9.4 W 30 39 16 21 1011.2 1008.6 0.0
20/03:11pm 19.9 11.8 -0.1 26 9.1 W 32 54 17 29 1011.0 1008.4 0.0
20/03:00pm 20.1 12.4 0.0 26 9.2 WNW 30 44 16 24 1011.1 1008.5 0.0
20/02:34pm 20.4 13.1 0.3 26 9.3 WNW 28 50 15 27 1011.1 1008.5 0.0
20/02:30pm 19.5 11.9 0.5 28 8.7 WNW 30 46 16 25 1011.3 1008.7 0.0
20/02:09pm 19.3 12.1 0.4 28 8.7 WNW 28 54 15 29 1011.4 1008.8 0.0
20/02:00pm 19.3 12.1 0.8 29 8.6 WNW 28 41 15 22 1011.5 1008.9 0.0
20/01:30pm 18.4 10.1 -0.4 28 8.4 WNW 33 52 18 28 1011.1 1008.5 0.0
20/01:00pm 18.4 9.8 0.1 29 8.3 WNW 35 61 19 33 1011.0 1008.4 0.0
20/12:55pm 19.4 11.2 0.4 28 8.7 WNW 33 61 18 33 1010.8 1008.2 0.0
20/12:30pm 17.5 8.2 0.6 32 7.7 WNW 39 54 21 29 1011.0 1008.4 0.0
20/12:14pm 16.7 8.1 0.4 33 7.3 WNW 35 57 19 31 1011.0 1008.4 0.0
20/12:00pm 16.6 8.0 -0.1 32 7.4 WNW 35 44 19 24 1011.2 1008.6 0.0
20/11:34am 16.3 8.0 -0.4 32 7.3 WNW 33 52 18 28 1011.2 1008.6 0.0
20/11:30am 16.3 7.7 0.4 34 7.1 WNW 35 50 19 27 1011.1 1008.5 0.0
20/11:00am 15.4 7.8 0.4 36 6.7 WNW 30 41 16 22 1011.2 1008.6 0.0
20/10:37am 14.5 6.9 0.4 38 6.2 W 30 48 16 26 1011.2 1008.6 0.0
20/10:30am 14.9 7.2 2.1 42 5.9 WNW 32 44 17 24 1011.4 1008.8 0.0
20/10:00am 13.6 5.1 0.6 41 5.7 WNW 35 54 19 29 1011.3 1008.7 0.0
20/09:56am 13.7 5.6 0.7 41 5.7 WNW 33 54 18 29 1011.4 1008.8 0.0
20/09:30am 12.6 4.7 1.3 46 5.0 WNW 32 44 17 24 1011.3 1008.7 0.0
20/09:00am 11.4 5.4 3.4 58 3.7 WNW 24 37 13 20 1011.4 1008.8 0.0
20/08:30am 10.1 3.8 3.6 64 3.0 WNW 26 37 14 20 1011.3 1008.7 0.0
20/08:00am 9.3 3.7 3.3 66 2.7 WNW 22 33 12 18 1011.1 1008.5 0.0
20/07:30am 8.8 4.9 3.2 68 2.5 WNW 13 20 7 11 1011.2 1008.6 0.0
20/07:00am 8.4 3.7 3.1 69 2.3 WNW 17 24 9 13 1010.7 1008.1 0.0
20/06:30am 8.8 3.5 3.2 68 2.5 W 20 28 11 15 1010.2 1007.5 0.0
20/06:00am 8.7 3.6 3.3 69 2.4 NW 19 28 10 15 1009.7 1007.1 0.0
20/05:30am 9.5 4.4 3.3 65 2.8 WNW 19 26 10 14 1009.3 1006.7 0.0
20/05:00am 10.2 5.2 3.5 63 3.0 WNW 19 28 10 15 1009.1 1006.5 0.0
20/04:30am 10.8 6.3 4.0 63 3.1 WNW 17 28 9 15 1008.8 1006.1 0.0
20/04:00am 11.6 5.8 4.3 61 3.4 W 24 35 13 19 1008.9 1006.2 0.0
20/03:30am 11.7 6.7 3.5 57 3.8 W 19 28 10 15 1008.8 1006.1 0.0
20/03:00am 11.7 5.8 1.6 50 4.5 WNW 22 30 12 16 1008.7 1006.0 0.0
20/02:30am 10.5 6.2 1.1 52 4.0 NW 13 17 7 9 1008.6 1005.9 0.0
20/02:00am 11.1 7.1 0.8 49 4.4 NW 11 15 6 8 1008.6 1005.9 0.0
20/01:30am 11.7 7.4 1.1 48 4.6 NW 13 15 7 8 1008.6 1005.9 0.0
20/01:00am 12.0 7.7 0.8 46 4.9 WNW 13 19 7 10 1008.8 1006.1 0.0
20/12:30am 12.4 8.0 0.5 44 5.1 WNW 13 19 7 10 1009.1 1006.5 0.0
20/12:00am 12.9 8.1 0.3 42 5.5 WNW 15 20 8 11 1009.1 1006.5 0.0
 
Date/Time
EDT
Temp
°C
App
Temp
°C
Dew
Point
°C
Rel
Hum
%
Delta-T
°C
Wind Press
QNH
hPa
Press
MSL
hPa
Rain since
9am
mm
Dir  Spd
km/h
Gust
km/h
Spd
kts
Gust
kts
19/11:30pm 14.1 8.9 0.0 38 6.1 WNW 17 20 9 11 1009.1 1006.5 0.0
19/11:00pm 14.7 9.1 -0.2 36 6.5 WNW 19 26 10 14 1009.0 1006.3 0.0
19/10:30pm 14.6 9.7 -0.7 35 6.6 W 15 20 8 11 1008.7 1006.0 0.0
19/10:00pm 14.7 10.5 -0.6 35 6.6 WNW 11 13 6 7 1009.0 1006.3 0.0
19/09:30pm 15.2 11.8 -0.9 33 6.9 WNW 7 13 4 7 1009.2 1006.6 0.0
19/09:00pm 16.5 11.9 -1.1 30 7.7 W 13 19 7 10 1009.1 1006.5 0.0
19/08:30pm 17.3 12.3 -0.9 29 8.0 WNW 15 24 8 13 1008.7 1006.0 0.0
19/08:00pm 17.9 12.6 -0.8 28 8.3 WNW 17 26 9 14 1008.5 1005.8 0.0
19/07:30pm 19.1 12.8 -0.8 26 8.9 WNW 22 32 12 17 1008.0 1005.4 0.0
19/07:00pm 20.3 13.6 -0.9 24 9.6 WNW 24 35 13 19 1007.5 1004.8 0.0
19/06:30pm 21.0 13.9 -1.5 22 10.1 WNW 26 35 14 19 1007.0 1004.3 0.0
19/06:00pm 21.9 15.5 -2.0 20 10.7 WNW 22 39 12 21 1007.0 1004.3 0.0
19/05:30pm 22.3 15.1 -2.4 19 11.0 WNW 26 41 14 22 1007.0 1004.3 0.0
19/05:00pm 22.7 15.1 -2.1 19 11.2 NW 28 39 15 21 1006.9 1004.2 0.0
19/04:30pm 22.7 15.9 -2.1 19 11.1 WNW 24 32 13 17 1007.0 1004.3 0.0
19/04:15pm 22.4 14.9 -1.6 20 10.8 NW 28 48 15 26 1007.2 1004.5 0.0
19/04:00pm 22.9 15.5 -0.6 21 10.9 WNW 28 39 15 21 1007.3 1004.6 0.0
19/03:30pm 22.4 15.7 -1.0 21 10.7 W 24 46 13 25 1007.6 1004.9 0.0
19/03:00pm 22.3 14.4 -1.7 20 10.8 WNW 30 43 16 23 1008.0 1005.4 0.0
19/02:30pm 22.0 13.5 -2.0 20 10.7 NW 33 46 18 25 1008.0 1005.4 0.0
19/02:00pm 22.2 15.2 -0.5 22 10.5 NW 26 41 14 22 1008.3 1005.7 0.0
19/01:30pm 21.7 14.2 -1.6 21 10.5 WNW 28 44 15 24 1008.6 1005.9 0.0
19/01:00pm 21.9 15.8 0.4 24 10.1 NW 22 39 12 21 1008.8 1006.1 0.0
19/12:30pm 21.9 16.2 0.4 24 10.1 NW 20 35 11 19 1008.9 1006.2 0.0
19/12:00pm 20.3 14.0 1.7 29 8.8 NNW 24 33 13 18 1009.3 1006.7 0.0
19/11:30am 19.2 13.3 1.7 31 8.2 NNW 22 33 12 18 1009.7 1007.1 0.0
19/11:00am 17.7 14.1 6.9 49 5.6 WNW 15 22 8 12 1010.2 1007.5 0.0
19/10:30am 17.3 15.2 8.4 56 4.7 NNW 9 19 5 10 1010.3 1007.6 0.0
19/10:00am 15.6 14.3 9.3 66 3.4 WSW 6 11 3 6 1010.8 1008.2 0.0
19/09:30am 14.7 13.5 9.7 72 2.7 SE 6 11 3 6 1010.9 1008.3 0.0
19/09:00am 13.9 13.8 10.9 82 1.6 SE 2 6 1 3 1011.1 1008.5 0.6
19/08:30am 12.6 12.7 10.3 86 1.2 CALM 0 2 0 1 1011.1 1008.5 0.6
19/08:00am 11.9 11.3 10.3 90 0.9 SE 4 6 2 3 1011.1 1008.5 0.6
19/07:30am 11.4 10.6 9.8 90 0.8 SE 4 7 2 4 1011.0 1008.4 0.6
19/07:00am 11.4 10.3 10.0 91 0.7 SE 6 7 3 4 1010.6 1008.0 0.6
19/06:30am 11.4 10.7 10.0 91 0.7 SE 4 6 2 3 1010.4 1007.7 0.6
19/06:00am 11.5 10.4 10.1 91 0.7 SE 6 7 3 4 1010.5 1007.8 0.6
19/05:30am 11.4 9.4 10.0 91 0.7 SE 11 15 6 8 1010.2 1007.5 0.6
19/05:00am 11.4 8.6 10.0 91 0.7 SE 15 22 8 12 1009.9 1007.3 0.6
19/04:30am 11.7 10.4 10.1 90 0.8 SSE 7 13 4 7 1009.6 1007.0 0.6
19/04:00am 11.9 9.2 10.3 90 0.9 SE 15 20 8 11 1009.4 1006.8 0.6
19/03:30am 12.4 11.3 10.8 90 0.9 SSE 7 17 4 9 1009.4 1006.8 0.6
19/03:00am 12.6 11.2 10.8 89 1.0 SSE 9 15 5 8 1009.5 1006.9 0.6
19/02:30am 12.8 11.1 11.2 90 0.9 SSE 11 19 6 10 1009.5 1006.9 0.6
19/02:00am 13.0 10.6 11.4 90 0.9 SSE 15 20 8 11 1009.5 1006.9 0.6
19/01:30am 13.6 12.5 12.0 90 0.9 SSE 9 15 5 8 1009.8 1007.2 0.6
19/01:00am 14.0 12.3 12.6 91 0.8 SSE 13 17 7 9 1009.9 1007.3 0.6
19/12:30am 14.1 11.7 12.7 91 0.8 SE 17 24 9 13 1009.9 1007.3 0.6
19/12:00am 14.6 13.1 13.1 91 0.9 SE 13 19 7 10 1010.4 1007.7 0.6
 
Date/Time
EDT
Temp
°C
App
Temp
°C
Dew
Point
°C
Rel
Hum
%
Delta-T
°C
Wind Press
QNH
hPa
Press
MSL
hPa
Rain since
9am
mm
Dir  Spd
km/h
Gust
km/h
Spd
kts
Gust
kts
18/11:30pm 14.9 13.9 13.4 91 0.9 SE 11 17 6 9 1009.9 1007.3 0.6
18/11:00pm 15.0 13.5 13.2 89 1.0 SE 13 22 7 12 1010.0 1007.4 0.6
18/10:30pm 15.7 14.4 13.7 88 1.2 ESE 13 20 7 11 1010.2 1007.5 0.6
18/10:00pm 16.7 14.7 13.8 83 1.7 ESE 17 22 9 12 1009.8 1007.2 0.6
18/09:30pm 17.5 15.5 14.0 80 2.1 W 17 20 9 11 1009.5 1006.9 0.6
18/09:00pm 18.4 18.6 11.7 65 3.8 WNW 2 13 1 7 1009.2 1006.6 0.6
18/08:30pm 19.5 18.0 6.9 44 6.6 WNW 4 13 2 7 1009.1 1006.5 0.6
18/08:00pm 20.0 17.7 5.6 39 7.4 WNW 7 13 4 7 1008.6 1005.9 0.6
18/07:30pm 20.2 16.2 5.1 37 7.6 NW 15 19 8 10 1008.2 1005.6 0.6
18/07:00pm 20.7 16.5 3.9 33 8.4 WNW 15 22 8 12 1008.0 1005.4 0.6
18/06:30pm 21.1 15.5 3.3 31 8.7 WNW 22 35 12 19 1007.7 1005.1 0.6
18/06:00pm 22.9 17.3 5.3 32 9.1 W 24 35 13 19 1007.3 1004.6 0.6
18/05:30pm 22.5 16.9 5.4 33 8.8 WNW 24 41 13 22 1007.3 1004.6 0.6
18/05:00pm 22.7 17.2 6.0 34 8.7 WNW 24 32 13 17 1007.2 1004.5 0.6
18/04:30pm 23.5 17.6 7.6 36 8.6 W 28 39 15 21 1007.0 1004.3 0.6
18/04:00pm 22.0 20.1 14.1 61 4.8 SSW 17 28 9 15 1007.4 1004.7 0.6
18/03:30pm 20.1 18.7 16.5 80 2.2 SE 19 24 10 13 1007.5 1004.8 0.6
18/03:00pm 24.2 20.4 9.8 40 8.1 W 20 28 11 15 1007.4 1004.7 0.6
18/02:30pm 24.5 21.7 11.5 44 7.5 WSW 17 33 9 18 1007.7 1005.1 0.6
18/02:00pm 23.7 21.4 14.1 55 5.8 SSW 19 37 10 20 1007.6 1004.9 0.6
18/01:30pm 24.4 24.1 14.5 54 6.0 N 9 24 5 13 1007.7 1005.1 0.6
18/01:00pm 23.3 23.9 15.9 63 4.6 N 7 13 4 7 1008.1 1005.5 0.6
18/12:30pm 21.0 21.5 13.9 64 4.2 N 4 7 2 4 1009.0 1006.3 0.6
18/12:00pm 20.9 21.7 15.9 73 3.1 N 6 9 3 5 1009.0 1006.3 0.6
18/11:30am 18.7 18.9 14.2 75 2.7 N 6 9 3 5 1009.3 1006.7 0.6
18/11:00am 18.4 18.9 13.9 75 2.7 N 4 6 2 3 1009.7 1007.1 0.4
18/10:30am 17.7 17.4 14.4 81 2.0 N 9 20 5 11 1009.6 1007.0 0.4
18/10:00am 17.7 16.4 12.6 72 2.9 N 11 15 6 8 1010.2 1007.5 0.2
18/09:30am 18.4 17.9 13.7 74 2.8 N 9 13 5 7 1010.0 1007.4 0.0
18/09:00am 19.6 19.7 13.8 69 3.4 N 6 9 3 5 1009.2 1006.6 0.4
18/08:30am 19.5 19.7 14.3 72 3.1 N 6 9 3 5 1009.0 1006.3 0.4
18/08:00am 18.3 18.8 15.0 81 2.0 N 6 7 3 4 1009.2 1006.6 0.4
18/07:30am 18.8 17.5 12.5 67 3.6 N 11 17 6 9 1009.3 1006.7 0.4
18/07:00am 19.0 19.6 15.3 79 2.2 N 6 9 3 5 1008.9 1006.2 0.0
18/06:30am 19.1 20.1 15.4 79 2.2 N 4 4 2 2 1008.3 1005.7 0.0
18/06:00am 18.6 19.5 15.1 80 2.1 N 4 4 2 2 1008.3 1005.7 0.0
18/05:30am 18.4 19.2 14.9 80 2.1 N 4 6 2 3 1008.2 1005.6 0.0
18/05:00am 18.9 20.6 15.2 79 2.2 CALM 0 4 0 2 1008.2 1005.6 0.0
18/04:30am 19.6 20.2 15.3 76 2.6 N 6 7 3 4 1008.2 1005.6 0.0
18/04:00am 20.4 21.0 15.2 72 3.2 N 6 7 3 4 1008.1 1005.5 0.0
18/03:30am 20.4 20.8 15.4 73 3.0 N 7 9 4 5 1008.2 1005.6 0.0
18/03:00am 21.3 21.3 15.2 68 3.7 N 9 17 5 9 1008.2 1005.6 0.0
18/02:30am 21.6 21.7 15.4 68 3.8 N 9 15 5 8 1008.6 1005.9 0.0
18/02:00am 21.4 21.3 15.0 67 3.9 N 9 13 5 7 1008.9 1006.2 0.0
18/01:30am 22.1 21.3 15.2 65 4.2 NNE 13 19 7 10 1009.0 1006.3 0.0
18/01:00am 22.3 21.6 15.4 65 4.2 NNE 13 19 7 10 1009.5 1006.9 0.0
18/12:30am 22.4 21.3 15.3 64 4.4 NNE 15 22 8 12 1009.8 1007.2 0.0
18/12:00am 22.9 21.9 15.5 63 4.6 N 15 26 8 14 1009.9 1007.3 0.0
 
Date/Time
EDT
Temp
°C
App
Temp
°C
Dew
Point
°C
Rel
Hum
%
Delta-T
°C
Wind Press
QNH
hPa
Press
MSL
hPa
Rain since
9am
mm
Dir  Spd
km/h
Gust
km/h
Spd
kts
Gust
kts
17/11:30pm 23.4 22.3 15.2 60 5.0 N 15 20 8 11 1009.9 1007.3 0.0
17/11:00pm 23.8 23.3 15.0 57 5.4 N 11 17 6 9 1010.0 1007.4 0.0
17/10:30pm 24.2 23.6 14.6 55 5.9 N 11 19 6 10 1010.2 1007.5 0.0
17/10:00pm 25.0 23.9 14.2 51 6.6 NNW 13 20 7 11 1010.0 1007.4 0.0

Other Formats:

Comma delimited format used in spreadsheet applications
http://www.bom.gov.au/fwo/IDN60801/IDN60801.94943.axf

JavaScript Object Notation format (JSON) in row-major order
http://www.bom.gov.au/fwo/IDN60801/IDN60801.94943.json